Time;durP1;ratioP1;P1;durP2;ratioP2;P2;SDS_P1;SDS_P2;PMS_P1;PMS_P2;Temp;Humidity;BMP_temperature;BMP_pressure;BME280_temperature;BME280_humidity;BME280_pressure;Samples;Min_cycle;Max_cycle;Signal;HPM_P1;HPM_P2
2021/12/22 00:00:57;;;;;;;;;;;0.00;99.90;;;;;;5010977;28;19905;-74
2021/12/22 00:03:23;;;;;;;;;;;-0.20;99.90;;;;;;5011209;28;19905;-74
2021/12/22 00:05:51;;;;;;;;;;;-0.10;99.90;;;;;;5012303;28;19944;-74
2021/12/22 00:08:18;;;;;;;;;;;-0.10;99.90;;;;;;5010661;28;19928;-74
2021/12/22 00:10:47;;;;;;;;;;;-0.10;99.90;;;;;;5012231;28;19905;-74
2021/12/22 00:13:12;;;;;;;;;;;-0.10;99.90;;;;;;5012251;28;19928;-75
2021/12/22 00:15:38;;;;;;;;;;;0.00;99.90;;;;;;5012004;28;19910;-75
2021/12/22 00:18:04;;;;;;;;;;;0.00;99.90;;;;;;5010921;28;19905;-74
2021/12/22 00:20:30;;;;;;;;;;;0.00;99.90;;;;;;5011043;28;20029;-74
2021/12/22 00:22:56;;;;;;;;;;;0.10;99.90;;;;;;5012190;28;19905;-74
2021/12/22 00:25:25;;;;;;;;;;;0.00;99.90;;;;;;5012162;28;19906;-74
2021/12/22 00:27:51;;;;;;;;;;;0.00;99.90;;;;;;5012046;28;19956;-75
2021/12/22 00:30:17;;;;;;;;;;;0.00;99.90;;;;;;5012146;28;20025;-74
2021/12/22 00:32:50;;;;;;;;;;;-0.10;99.90;;;;;;5012117;28;20391;-74
2021/12/22 00:35:15;;;;;;;;;;;0.10;99.90;;;;;;5012091;28;19916;-75
2021/12/22 00:37:41;;;;;;;;;;;0.20;99.90;;;;;;5011804;28;19909;-74
2021/12/22 00:40:07;;;;;;;;;;;0.20;99.90;;;;;;5010739;28;19912;-75
2021/12/22 00:42:32;;;;;;;;;;;0.10;99.90;;;;;;5015218;28;19984;-75
2021/12/22 00:44:58;;;;;;;;;;;0.00;99.90;;;;;;5015593;28;19906;-75
2021/12/22 00:47:25;;;;;;;;;;;-0.10;99.90;;;;;;5014301;28;19905;-75
2021/12/22 00:49:51;;;;;;;;;;;0.00;99.90;;;;;;5014190;28;19917;-75
2021/12/22 00:52:17;;;;;;;;;;;0.20;99.90;;;;;;5015362;28;19905;-74
2021/12/22 00:54:42;;;;;;;;;;;0.20;99.90;;;;;;5014005;28;20379;-75
2021/12/22 00:57:10;;;;;;;;;;;0.00;99.90;;;;;;5015160;28;19912;-74
2021/12/22 00:59:36;;;;;;;;;;;0.00;99.90;;;;;;5015287;28;19912;-74
2021/12/22 01:02:02;;;;;;;;;;;-0.10;99.90;;;;;;5015197;28;19960;-75
2021/12/22 01:04:28;;;;;;;;;;;-0.10;99.90;;;;;;5015196;28;19948;-74
2021/12/22 01:06:53;;;;;;;;;;;-0.10;99.90;;;;;;5014692;28;19944;-74
2021/12/22 01:09:19;;;;;;;;;;;-0.10;99.90;;;;;;5015159;28;19906;-74
2021/12/22 01:11:45;;;;;;;;;;;0.00;99.90;;;;;;5013825;28;19905;-75
2021/12/22 01:14:11;;;;;;;;;;;0.00;99.90;;;;;;5014959;28;19963;-74
2021/12/22 01:16:37;;;;;;;;;;;-0.10;99.90;;;;;;5014855;28;19906;-74
2021/12/22 01:19:08;;;;;;;;;;;-0.30;99.90;;;;;;5013729;28;20383;-74
2021/12/22 01:21:45;;;;;;;;;;;-0.40;99.90;;;;;;5014854;28;19917;-75
2021/12/22 01:24:21;;;;;;;;;;;-0.40;99.90;;;;;;5013616;28;19971;-74
2021/12/22 01:26:51;;;;;;;;;;;-0.40;99.90;;;;;;5014679;28;19905;-75
2021/12/22 01:29:17;;;;;;;;;;;-0.30;99.90;;;;;;5014839;28;20349;-74
2021/12/22 01:31:43;;;;;;;;;;;-0.40;99.90;;;;;;5014701;28;19905;-74
2021/12/22 01:34:10;;;;;;;;;;;-0.20;99.90;;;;;;5013314;28;19920;-74
2021/12/22 01:36:36;;;;;;;;;;;-0.10;99.90;;;;;;4996790;28;19905;-74
2021/12/22 01:39:03;;;;;;;;;;;-0.10;99.90;;;;;;5071837;22;20461;-88
2021/12/22 01:41:28;;;;;;;;;;;-0.30;99.90;;;;;;5017422;28;19911;-88
2021/12/22 01:43:54;;;;;;;;;;;-0.30;99.90;;;;;;5017019;28;19905;-88
2021/12/22 01:49:17;;;;;;;;;;;-0.20;99.90;;;;;;5033814;28;19912;-88
2021/12/22 01:51:50;;;;;;;;;;;-0.20;99.90;;;;;;5016894;28;20293;-87
2021/12/22 01:54:27;;;;;;;;;;;-0.30;99.90;;;;;;5015887;28;19913;-88
2021/12/22 01:56:53;;;;;;;;;;;-0.30;99.90;;;;;;5017152;28;19905;-88
2021/12/22 01:59:22;;;;;;;;;;;-0.30;99.90;;;;;;5017253;28;19905;-87
2021/12/22 02:01:48;;;;;;;;;;;-0.40;99.90;;;;;;5017176;28;20000;-88
2021/12/22 02:04:14;;;;;;;;;;;-0.50;99.90;;;;;;5016998;28;19944;-88
2021/12/22 02:06:40;;;;;;;;;;;-0.40;99.90;;;;;;5016545;28;19905;-87
2021/12/22 02:09:05;;;;;;;;;;;-0.60;99.90;;;;;;5016390;28;19995;-87
2021/12/22 02:11:34;;;;;;;;;;;-0.60;99.90;;;;;;5017310;28;19995;-88
2021/12/22 02:14:05;;;;;;;;;;;-0.50;99.90;;;;;;5016360;28;20015;-88
2021/12/22 02:16:35;;;;;;;;;;;-0.60;99.90;;;;;;5016487;28;20281;-87
2021/12/22 02:19:03;;;;;;;;;;;-0.50;99.90;;;;;;5016454;28;19911;-87
2021/12/22 02:21:40;;;;;;;;;;;-0.40;99.90;;;;;;5016249;28;19905;-88
2021/12/22 02:24:15;;;;;;;;;;;-0.60;99.90;;;;;;5016422;28;19909;-88
2021/12/22 02:27:00;;;;;;;;;;;-0.60;99.90;;;;;;5016234;28;19905;-88
2021/12/22 02:29:35;;;;;;;;;;;-0.50;99.90;;;;;;5016411;28;19927;-88
2021/12/22 02:32:07;;;;;;;;;;;-0.40;99.90;;;;;;5016213;28;19928;-88
2021/12/22 02:34:40;;;;;;;;;;;-0.50;99.90;;;;;;5016692;28;19916;-88
2021/12/22 02:37:11;;;;;;;;;;;-0.70;99.90;;;;;;5016332;28;20301;-88
2021/12/22 02:39:56;;;;;;;;;;;;;;;;;;;;;
2021/12/22 02:42:46;;;;;;;;;;;-0.50;99.90;;;;;;5040702;28;19911;-88
2021/12/22 02:45:13;;;;;;;;;;;-0.40;99.90;;;;;;5016112;28;19927;-87
2021/12/22 02:47:42;;;;;;;;;;;-0.50;99.90;;;;;;5016523;28;19912;-87
2021/12/22 02:50:09;;;;;;;;;;;-0.60;99.90;;;;;;5015746;28;19916;-88
2021/12/22 02:52:48;;;;;;;;;;;-0.70;99.90;;;;;;5016065;28;19975;-88
2021/12/22 02:55:29;;;;;;;;;;;-0.50;99.90;;;;;;5016463;28;19909;-87
2021/12/22 02:58:05;;;;;;;;;;;-0.40;99.90;;;;;;5015726;28;19905;-88
2021/12/22 03:03:27;;;;;;;;;;;-0.60;99.90;;;;;;5032623;28;19905;-88
2021/12/22 03:05:55;;;;;;;;;;;-0.90;99.90;;;;;;5015636;28;19909;-87
2021/12/22 03:08:24;;;;;;;;;;;-0.90;99.90;;;;;;5015782;28;19911;-87
2021/12/22 03:10:53;;;;;;;;;;;-0.70;99.90;;;;;;5015918;28;20449;-88
2021/12/22 03:13:23;;;;;;;;;;;-0.70;99.90;;;;;;5014918;28;19905;-87
2021/12/22 03:15:51;;;;;;;;;;;-0.60;99.90;;;;;;5016124;28;19909;-88
2021/12/22 03:18:17;;;;;;;;;;;-0.40;99.90;;;;;;5015426;28;20359;-87
2021/12/22 03:20:46;;;;;;;;;;;-0.40;99.90;;;;;;5015558;28;20329;-88
2021/12/22 03:23:15;;;;;;;;;;;-0.40;99.90;;;;;;5015782;28;19905;-88
2021/12/22 03:25:41;;;;;;;;;;;-0.60;99.90;;;;;;5015505;28;19909;-88
2021/12/22 03:28:12;;;;;;;;;;;-0.50;99.90;;;;;;5016109;28;19905;-87
2021/12/22 03:30:38;;;;;;;;;;;-0.60;99.90;;;;;;5015493;28;19912;-87
2021/12/22 03:33:04;;;;;;;;;;;-0.80;99.90;;;;;;5016084;28;19909;-88
2021/12/22 03:35:34;;;;;;;;;;;-0.80;99.90;;;;;;5016277;28;19908;-87
2021/12/22 03:38:03;;;;;;;;;;;-1.00;99.90;;;;;;5021312;28;19965;-86
2021/12/22 03:40:29;;;;;;;;;;;-0.90;99.90;;;;;;5033956;28;19913;-88
2021/12/22 03:43:02;;;;;;;;;;;-0.90;99.90;;;;;;5015188;28;20293;-88
2021/12/22 03:45:37;;;;;;;;;;;-0.80;99.90;;;;;;5016621;28;19954;-88
2021/12/22 03:48:03;;;;;;;;;;;-1.00;99.90;;;;;;5015330;28;19912;-87
2021/12/22 03:50:29;;;;;;;;;;;-1.00;99.90;;;;;;5015286;28;19905;-87
2021/12/22 03:52:55;;;;;;;;;;;-1.20;99.90;;;;;;5015237;28;19905;-88
2021/12/22 03:55:27;;;;;;;;;;;-1.20;99.90;;;;;;5015180;28;19925;-88
2021/12/22 03:57:52;;;;;;;;;;;-1.20;99.90;;;;;;5014934;28;20286;-88
2021/12/22 04:00:18;;;;;;;;;;;-1.10;99.90;;;;;;5015528;28;19905;-87
2021/12/22 04:02:44;;;;;;;;;;;-1.00;99.90;;;;;;5015537;28;19905;-87
2021/12/22 04:05:11;;;;;;;;;;;-0.90;99.90;;;;;;5022272;28;19893;-87
2021/12/22 04:07:36;;;;;;;;;;;-1.00;99.90;;;;;;5037876;28;19897;-87
2021/12/22 04:10:19;;;;;;;;;;;-1.10;99.90;;;;;;5027202;28;19920;-88
2021/12/22 04:12:53;;;;;;;;;;;-1.00;99.90;;;;;;5015447;28;19911;-88
2021/12/22 04:15:22;;;;;;;;;;;-1.00;99.90;;;;;;5015380;28;20286;-88
2021/12/22 04:17:48;;;;;;;;;;;-1.20;99.90;;;;;;5018559;28;20051;-88
2021/12/22 04:20:13;;;;;;;;;;;-1.10;99.90;;;;;;5019034;28;19940;-88
2021/12/22 04:22:50;;;;;;;;;;;-1.10;99.90;;;;;;5019414;28;19905;-88
2021/12/22 04:25:25;;;;;;;;;;;-1.00;99.90;;;;;;5020336;28;19905;-88
2021/12/22 04:27:53;;;;;;;;;;;-1.10;99.90;;;;;;5018592;28;20431;-87
2021/12/22 04:30:23;;;;;;;;;;;-1.20;99.90;;;;;;5018930;28;19905;-87
2021/12/22 04:32:49;;;;;;;;;;;-1.30;99.90;;;;;;5033231;28;20281;-87
2021/12/22 04:35:15;;;;;;;;;;;-1.20;99.90;;;;;;5018642;28;19909;-87
2021/12/22 04:37:49;;;;;;;;;;;-1.40;99.90;;;;;;5018655;28;20412;-88
2021/12/22 04:40:34;;;;;;;;;;;-1.30;99.90;;;;;;5019054;28;19913;-88
2021/12/22 04:43:03;;;;;;;;;;;-1.10;99.90;;;;;;5018384;28;19905;-88
2021/12/22 04:45:29;;;;;;;;;;;-1.00;99.90;;;;;;5018626;28;19905;-87
2021/12/22 04:47:56;;;;;;;;;;;-1.00;99.90;;;;;;5017921;28;20404;-88
2021/12/22 04:50:25;;;;;;;;;;;-0.80;99.90;;;;;;5018681;28;19948;-87
2021/12/22 04:52:59;;;;;;;;;;;-1.00;99.90;;;;;;5018535;28;19912;-88
2021/12/22 04:55:34;;;;;;;;;;;-1.20;99.90;;;;;;5018150;28;19913;-85
2021/12/22 04:58:03;;;;;;;;;;;-1.20;99.90;;;;;;5032929;28;19905;-88
2021/12/22 05:00:36;;;;;;;;;;;-1.10;99.90;;;;;;5018654;28;20023;-87
2021/12/22 05:03:05;;;;;;;;;;;-1.20;99.90;;;;;;5018522;28;19905;-88
2021/12/22 05:05:36;;;;;;;;;;;-1.20;99.90;;;;;;5018905;28;19912;-88
2021/12/22 05:08:02;;;;;;;;;;;-1.20;99.90;;;;;;5017820;28;19905;-87
2021/12/22 05:10:28;;;;;;;;;;;-1.10;99.90;;;;;;5018249;28;19905;-87
2021/12/22 05:13:03;;;;;;;;;;;-1.30;99.90;;;;;;5019122;28;19999;-87
2021/12/22 05:15:38;;;;;;;;;;;-1.50;99.90;;;;;;5018454;28;19932;-87
2021/12/22 05:20:49;;;;;;;;;;;-1.30;99.90;;;;;;5034586;28;19940;-87
2021/12/22 05:23:15;;;;;;;;;;;-1.30;99.90;;;;;;5018266;28;20368;-87
2021/12/22 05:25:47;;;;;;;;;;;-1.30;99.90;;;;;;5017753;28;19909;-88
2021/12/22 05:28:13;;;;;;;;;;;-1.30;99.90;;;;;;5017546;28;19913;-88
2021/12/22 05:30:39;;;;;;;;;;;-1.20;99.90;;;;;;5017682;28;19905;-88
2021/12/22 05:33:15;;;;;;;;;;;-1.20;99.90;;;;;;5017874;28;19912;-88
2021/12/22 05:35:41;;;;;;;;;;;-1.30;99.90;;;;;;5017629;28;19909;-87
2021/12/22 05:38:12;;;;;;;;;;;-1.20;99.90;;;;;;5017856;28;19911;-88
2021/12/22 05:40:38;;;;;;;;;;;-1.20;99.90;;;;;;5017248;28;19919;-87
2021/12/22 05:43:08;;;;;;;;;;;-1.10;99.90;;;;;;5017841;28;19955;-87
2021/12/22 05:45:42;;;;;;;;;;;-1.20;99.90;;;;;;5017759;28;19912;-87
2021/12/22 05:48:19;;;;;;;;;;;-1.30;99.90;;;;;;5017122;28;19909;-87
2021/12/22 05:50:49;;;;;;;;;;;-1.40;99.90;;;;;;5017646;28;19992;-87
2021/12/22 05:53:18;;;;;;;;;;;-1.30;99.90;;;;;;5017467;28;19912;-88
2021/12/22 05:55:52;;;;;;;;;;;-1.20;99.90;;;;;;5017288;28;20366;-88
2021/12/22 05:58:19;;;;;;;;;;;-1.10;99.90;;;;;;5017180;28;19928;-88
2021/12/22 06:00:45;;;;;;;;;;;-1.30;99.90;;;;;;5017103;28;19912;-87
2021/12/22 06:03:13;;;;;;;;;;;-1.50;99.90;;;;;;5017001;28;19905;-88
2021/12/22 06:05:40;;;;;;;;;;;-1.50;99.90;;;;;;5017154;28;19912;-87
2021/12/22 06:08:05;;;;;;;;;;;-1.60;99.90;;;;;;5016790;28;19905;-88
2021/12/22 06:10:34;;;;;;;;;;;-1.60;99.90;;;;;;5017243;28;20416;-87
2021/12/22 06:13:07;;;;;;;;;;;-1.70;99.90;;;;;;5016571;28;19905;-87
2021/12/22 06:15:33;;;;;;;;;;;-1.80;99.90;;;;;;5016779;28;19909;-88
2021/12/22 06:18:00;;;;;;;;;;;-1.80;99.90;;;;;;5016772;28;19905;-88
2021/12/22 06:20:26;;;;;;;;;;;-1.80;99.90;;;;;;5016874;28;19905;-87
2021/12/22 06:22:52;;;;;;;;;;;-1.60;99.90;;;;;;5016767;28;19945;-88
2021/12/22 06:25:17;;;;;;;;;;;-1.60;99.90;;;;;;5016912;28;19959;-88
2021/12/22 06:27:43;;;;;;;;;;;-1.50;99.90;;;;;;5017528;28;19912;-88
2021/12/22 06:30:15;;;;;;;;;;;-1.60;99.90;;;;;;5008816;28;20365;-88
2021/12/22 06:33:03;;;;;;;;;;;-1.40;99.90;;;;;;5012577;28;19906;-88
2021/12/22 06:35:32;;;;;;;;;;;-1.40;99.90;;;;;;5014936;28;19941;-87
2021/12/22 06:38:19;;;;;;;;;;;;;;;;;;;;;
2021/12/22 06:40:59;;;;;;;;;;;-1.50;99.90;;;;;;5023912;28;20325;-87
2021/12/22 06:43:25;;;;;;;;;;;-1.60;99.90;;;;;;5016837;28;20492;-88
2021/12/22 06:45:50;;;;;;;;;;;-1.80;99.90;;;;;;5011450;28;19924;-88
2021/12/22 06:48:36;;;;;;;;;;;-1.70;99.90;;;;;;4996662;28;19913;-87
2021/12/22 06:51:07;;;;;;;;;;;-1.60;99.90;;;;;;5032506;28;19905;-88
2021/12/22 06:53:36;;;;;;;;;;;-1.60;99.90;;;;;;5023876;28;19912;-88
2021/12/22 06:56:03;;;;;;;;;;;-1.60;99.90;;;;;;5039597;28;19920;-87
2021/12/22 06:58:34;;;;;;;;;;;-1.50;99.90;;;;;;5043714;28;19905;-88
2021/12/22 07:01:16;;;;;;;;;;;-1.40;99.90;;;;;;5053815;28;19904;-87
2021/12/22 07:03:42;;;;;;;;;;;-1.30;99.90;;;;;;5031939;28;19913;-88
2021/12/22 07:06:16;;;;;;;;;;;-1.30;99.90;;;;;;5009948;28;19932;-88
2021/12/22 07:08:42;;;;;;;;;;;-1.20;99.90;;;;;;5005610;28;19912;-88
2021/12/22 07:11:10;;;;;;;;;;;-1.30;99.90;;;;;;4996614;28;20009;-88
2021/12/22 07:13:39;;;;;;;;;;;-1.20;99.90;;;;;;5023956;28;19960;-88
2021/12/22 07:16:08;;;;;;;;;;;-1.20;99.90;;;;;;5025403;28;19944;-89
2021/12/22 07:18:34;;;;;;;;;;;-1.20;99.90;;;;;;5015726;28;19905;-88
2021/12/22 07:21:03;;;;;;;;;;;-1.30;99.90;;;;;;5011386;28;19997;-88
2021/12/22 07:23:31;;;;;;;;;;;-1.40;99.90;;;;;;4996859;28;19940;-88
2021/12/22 07:25:57;;;;;;;;;;;-1.50;99.90;;;;;;4995930;28;20370;-88
2021/12/22 07:28:34;;;;;;;;;;;-1.60;99.90;;;;;;4995947;28;20325;-88
2021/12/22 07:31:00;;;;;;;;;;;-1.50;99.90;;;;;;4996885;28;20008;-88
2021/12/22 07:33:32;;;;;;;;;;;-1.60;99.90;;;;;;4995238;28;19912;-88
2021/12/22 07:36:02;;;;;;;;;;;-1.70;99.90;;;;;;4995985;28;20409;-88
2021/12/22 07:38:35;;;;;;;;;;;-1.60;99.90;;;;;;5002652;28;19914;-88
2021/12/22 07:41:08;;;;;;;;;;;-1.30;99.90;;;;;;5003539;28;19913;-88
2021/12/22 07:43:53;;;;;;;;;;;-1.20;99.90;;;;;;5004955;28;19905;-88
2021/12/22 07:46:48;;;;;;;;;;;-1.40;99.90;;;;;;5012522;28;19905;-88
2021/12/22 07:49:16;;;;;;;;;;;-1.40;99.90;;;;;;5003171;28;20000;-88
2021/12/22 07:51:54;;;;;;;;;;;-1.50;99.90;;;;;;5009365;28;19952;-88
2021/12/22 07:54:19;;;;;;;;;;;-1.60;99.90;;;;;;5034251;28;19962;-88
2021/12/22 07:56:54;;;;;;;;;;;-1.60;99.90;;;;;;5010434;28;19996;-88
2021/12/22 07:59:26;;;;;;;;;;;-1.50;99.90;;;;;;5002601;28;20012;-88
2021/12/22 08:01:56;;;;;;;;;;;-1.50;99.90;;;;;;5016996;28;19909;-88
2021/12/22 08:04:38;;;;;;;;;;;-1.50;99.90;;;;;;5011273;28;19983;-88
2021/12/22 08:13:23;;;;;;;;;;;-1.70;99.90;;;;;;5038658;28;20377;-91
2021/12/22 08:15:49;;;;;;;;;;;-1.60;99.90;;;;;;5019997;28;19916;-90
2021/12/22 08:18:15;;;;;;;;;;;-1.50;99.90;;;;;;5037133;28;19909;-90
2021/12/22 08:20:40;;;;;;;;;;;-1.60;99.90;;;;;;5037281;28;19993;-90
2021/12/22 08:23:06;;;;;;;;;;;-1.70;99.90;;;;;;5022020;28;20460;-90
2021/12/22 08:25:32;;;;;;;;;;;-1.60;99.90;;;;;;5019960;28;19905;-90
2021/12/22 08:27:58;;;;;;;;;;;-1.70;99.90;;;;;;5023452;28;20358;-90
2021/12/22 08:30:23;;;;;;;;;;;-1.80;99.90;;;;;;5025586;28;19905;-90
2021/12/22 08:32:49;;;;;;;;;;;-2.00;99.90;;;;;;5027984;28;19913;-89
2021/12/22 08:35:16;;;;;;;;;;;-2.00;99.90;;;;;;5028857;28;19980;-89
2021/12/22 08:40:26;;;;;;;;;;;-2.00;99.90;;;;;;5041675;28;19905;-90
2021/12/22 08:42:53;;;;;;;;;;;-1.90;99.90;;;;;;5029924;28;19969;-89
2021/12/22 08:45:19;;;;;;;;;;;-1.80;99.90;;;;;;5024594;28;19909;-90
2021/12/22 08:47:45;;;;;;;;;;;-1.80;99.90;;;;;;5022361;28;20369;-91
2021/12/22 08:50:12;;;;;;;;;;;-1.80;99.90;;;;;;5020367;28;19951;-90
2021/12/22 08:52:38;;;;;;;;;;;-1.60;99.90;;;;;;5019925;28;19968;-90
2021/12/22 08:55:04;;;;;;;;;;;-1.40;99.90;;;;;;5018999;28;20377;-91
2021/12/22 08:57:29;;;;;;;;;;;-1.60;99.90;;;;;;5019972;28;19909;-91
2021/12/22 08:59:55;;;;;;;;;;;-1.60;99.90;;;;;;5018888;28;19920;-91
2021/12/22 09:02:21;;;;;;;;;;;-1.50;99.90;;;;;;5017926;28;19912;-90
2021/12/22 09:04:47;;;;;;;;;;;-1.40;99.90;;;;;;5019501;28;20404;-91
2021/12/22 09:07:13;;;;;;;;;;;-1.40;99.90;;;;;;5019010;28;19913;-91
2021/12/22 09:09:38;;;;;;;;;;;-1.40;99.90;;;;;;5019076;28;19972;-90
2021/12/22 09:12:05;;;;;;;;;;;-1.40;99.90;;;;;;5018044;28;20381;-90
2021/12/22 09:14:31;;;;;;;;;;;-1.30;99.90;;;;;;5018485;28;20000;-90
2021/12/22 09:16:56;;;;;;;;;;;-1.10;99.90;;;;;;5018116;28;19944;-91
2021/12/22 09:19:23;;;;;;;;;;;-1.10;99.90;;;;;;5019024;28;19955;-91
2021/12/22 09:21:51;;;;;;;;;;;-1.00;99.90;;;;;;5018401;28;19913;-91
2021/12/22 09:24:16;;;;;;;;;;;-1.00;99.90;;;;;;5018129;28;19905;-92
2021/12/22 09:26:42;;;;;;;;;;;-0.90;99.90;;;;;;5031249;28;19912;-91
2021/12/22 09:29:08;;;;;;;;;;;-0.90;99.90;;;;;;5042764;28;20384;-91
2021/12/22 09:31:34;;;;;;;;;;;-0.40;99.90;;;;;;5037814;28;19905;-92
2021/12/22 09:33:59;;;;;;;;;;;0.10;99.90;;;;;;5034421;28;19921;-92
2021/12/22 09:36:25;;;;;;;;;;;0.80;99.90;;;;;;5017840;28;19912;-92
2021/12/22 09:38:51;;;;;;;;;;;1.30;99.90;;;;;;5017964;28;19913;-92
2021/12/22 09:41:16;;;;;;;;;;;1.70;98.60;;;;;;5019606;28;19905;-92
2021/12/22 09:43:42;;;;;;;;;;;2.00;97.10;;;;;;5017954;28;20277;-92
2021/12/22 09:46:11;;;;;;;;;;;2.20;94.70;;;;;;5017767;28;20009;-92
2021/12/22 09:49:06;;;;;;;;;;;2.30;94.50;;;;;;5018419;28;19905;-92
2021/12/22 09:53:51;;;;;;;;;;;3.60;90.30;;;;;;5048788;28;19913;-92
2021/12/22 09:56:20;;;;;;;;;;;3.60;86.50;;;;;;5017376;28;19940;-92
2021/12/22 09:58:47;;;;;;;;;;;3.90;86.60;;;;;;5017561;28;19905;-92
2021/12/22 10:01:13;;;;;;;;;;;4.20;83.50;;;;;;5017549;28;19905;-92
2021/12/22 10:03:39;;;;;;;;;;;4.20;81.90;;;;;;5017536;28;20385;-91
2021/12/22 10:06:04;;;;;;;;;;;4.00;81.00;;;;;;5017635;28;19905;-92
2021/12/22 10:08:56;;;;;;;;;;;3.90;81.70;;;;;;5018044;28;19913;-91
2021/12/22 10:11:22;;;;;;;;;;;3.80;81.20;;;;;;5018147;28;19904;-92
2021/12/22 10:13:48;;;;;;;;;;;4.30;80.10;;;;;;5018395;28;20350;-92
2021/12/22 10:16:24;;;;;;;;;;;4.50;79.40;;;;;;5017361;28;19961;-92
2021/12/22 10:19:02;;;;;;;;;;;5.00;77.60;;;;;;5018696;28;19931;-92
2021/12/22 10:21:28;;;;;;;;;;;5.10;76.20;;;;;;5017718;28;19912;-92
2021/12/22 10:23:54;;;;;;;;;;;5.20;74.00;;;;;;5019999;28;19905;-92
2021/12/22 10:26:43;;;;;;;;;;;5.50;74.30;;;;;;5030810;28;19908;-92
2021/12/22 10:29:09;;;;;;;;;;;5.80;73.10;;;;;;5024176;28;20121;-90
2021/12/22 10:31:36;;;;;;;;;;;6.10;72.10;;;;;;5018463;28;19905;-89
2021/12/22 10:34:10;;;;;;;;;;;6.30;70.40;;;;;;5018716;28;20009;-90
2021/12/22 10:36:46;;;;;;;;;;;6.50;68.40;;;;;;5017718;28;19905;-90
2021/12/22 10:39:24;;;;;;;;;;;6.70;68.40;;;;;;5023915;28;19955;-92
2021/12/22 10:41:53;;;;;;;;;;;7.00;66.60;;;;;;5018258;28;19917;-92
2021/12/22 10:49:14;;;;;;;;;;;6.90;65.50;;;;;;5033632;28;19988;-91
2021/12/22 10:50:31;;;;;;;;;;;6.40;66.50;;;;;;5032629;28;19996;-91
2021/12/22 10:53:00;;;;;;;;;;;6.10;66.30;;;;;;5018109;28;19944;-91
2021/12/22 10:55:43;;;;;;;;;;;6.70;66.80;;;;;;5017713;28;19963;-91
2021/12/22 10:58:14;;;;;;;;;;;6.60;66.20;;;;;;5016691;28;19905;-91
2021/12/22 11:00:40;;;;;;;;;;;7.10;64.50;;;;;;5017024;28;19967;-91
2021/12/22 11:03:07;;;;;;;;;;;7.70;63.30;;;;;;5018449;28;19905;-91
2021/12/22 11:05:43;;;;;;;;;;;8.20;60.70;;;;;;5017323;28;19905;-91
2021/12/22 11:08:23;;;;;;;;;;;8.60;59.20;;;;;;5016675;28;19931;-91
2021/12/22 11:10:52;;;;;;;;;;;8.60;58.50;;;;;;5018035;28;19982;-92
2021/12/22 11:13:22;;;;;;;;;;;8.50;58.00;;;;;;5018163;28;19919;-93
2021/12/22 11:15:51;;;;;;;;;;;8.80;57.80;;;;;;5018165;28;19909;-93
2021/12/22 11:18:27;;;;;;;;;;;9.10;56.80;;;;;;5018548;28;19944;-92
2021/12/22 11:21:10;;;;;;;;;;;9.20;56.50;;;;;;5020218;28;19958;-92
2021/12/22 11:23:36;;;;;;;;;;;9.40;55.70;;;;;;5017985;28;19905;-92
2021/12/22 11:26:03;;;;;;;;;;;9.40;55.00;;;;;;5027239;28;19912;-92
2021/12/22 11:28:33;;;;;;;;;;;9.30;55.80;;;;;;5027579;28;19958;-91
2021/12/22 11:31:03;;;;;;;;;;;9.40;55.50;;;;;;5037229;28;19981;-92
2021/12/22 11:33:37;;;;;;;;;;;9.40;56.50;;;;;;5022203;28;19905;-92
2021/12/22 11:36:10;;;;;;;;;;;9.70;55.40;;;;;;5017140;28;19913;-91
2021/12/22 11:38:48;;;;;;;;;;;9.40;54.90;;;;;;5017515;28;19944;-92
2021/12/22 11:41:27;;;;;;;;;;;8.90;55.90;;;;;;5022056;28;19905;-91
2021/12/22 11:43:53;;;;;;;;;;;8.50;57.00;;;;;;5025226;28;19912;-91
2021/12/22 11:46:20;;;;;;;;;;;7.20;59.20;;;;;;5020898;28;19920;-93
2021/12/22 11:48:48;;;;;;;;;;;7.10;60.70;;;;;;5019651;28;19905;-92
2021/12/22 11:51:23;;;;;;;;;;;6.10;62.20;;;;;;5017068;28;19905;-92
2021/12/22 11:54:28;;;;;;;5.47;2.58;;;4.90;66.90;;;;;;5145645;27;20393;-79
2021/12/22 11:56:57;;;;;;;4.53;2.30;;;4.40;69.00;;;;;;5117259;27;88979;-80
2021/12/22 11:59:30;;;;;;;0.80;0.80;;;3.60;70.90;;;;;;5088033;28;20017;-79
2021/12/22 12:02:20;;;;;;;0.60;0.60;;;3.30;73.00;;;;;;5065056;28;20093;-79
2021/12/22 12:04:48;;;;;;;5.68;2.75;;;2.90;74.70;;;;;;5066402;28;20029;-78
2021/12/22 12:07:43;;;;;;;7.57;2.58;;;2.80;75.80;;;;;;5082843;28;20491;-80
2021/12/22 12:10:40;;;;;;;6.43;2.65;;;2.70;76.90;;;;;;5065915;28;20069;-78
2021/12/22 12:13:22;;;;;;;1.75;1.50;;;2.40;77.50;;;;;;5046044;28;20037;-79
2021/12/22 12:22:07;;;;;;;0.47;0.47;;;1.60;80.70;;;;;;5082932;28;20491;-79
2021/12/22 12:24:48;;;;;;;0.73;0.73;;;1.60;83.40;;;;;;5099088;28;20020;-79
2021/12/22 12:27:38;;;;;;;5.93;5.47;;;1.60;81.80;;;;;;5082198;28;20032;-80
2021/12/22 12:30:16;;;;;;;1.80;1.70;;;1.70;82.30;;;;;;5082044;28;20020;-78
2021/12/22 12:32:42;;;;;;;2.60;2.40;;;1.70;81.80;;;;;;5099342;28;20080;-78
2021/12/22 12:35:23;;;;;;;0.40;0.40;;;1.70;79.90;;;;;;5099210;28;20029;-79
2021/12/22 12:38:06;;;;;;;0.95;0.95;;;1.70;81.10;;;;;;5082575;28;20025;-80
2021/12/22 12:40:54;;;;;;;0.80;0.80;;;1.50;82.90;;;;;;5083481;28;20029;-78
2021/12/22 12:43:39;;;;;;;0.70;0.70;;;1.50;82.50;;;;;;5099794;28;20032;-79
2021/12/22 12:46:24;;;;;;;0.93;0.93;;;1.50;83.40;;;;;;5099718;28;20013;-79
2021/12/22 12:48:51;;;;;;;5.57;3.22;;;1.30;83.80;;;;;;5067494;28;20055;-78
2021/12/22 12:51:32;;;;;;;7.68;1.70;;;1.50;84.40;;;;;;5082905;28;20084;-78
2021/12/22 12:54:03;;;;;;;1.90;1.77;;;1.50;84.60;;;;;;5066352;28;20040;-80
2021/12/22 12:56:36;;;;;;;2.15;2.05;;;1.40;85.10;;;;;;5081497;28;20029;-79
2021/12/22 12:59:03;;;;;;;0.63;0.60;;;1.60;85.50;;;;;;5065041;28;20116;-77
2021/12/22 13:01:49;;;;;;;1.60;1.48;;;1.60;85.10;;;;;;5064110;28;20023;-79
2021/12/22 13:04:23;;;;;;;2.10;1.88;;;2.40;84.20;;;;;;5058436;28;20024;-80
2021/12/22 13:07:07;;;;;;;9.88;3.20;;;3.70;79.10;;;;;;5048691;28;20032;-79
2021/12/22 13:09:46;;;;;;;3.60;1.98;;;5.00;74.40;;;;;;5065759;28;20044;-78
2021/12/22 13:12:33;;;;;;;0.40;0.40;;;6.20;68.80;;;;;;5064931;28;20039;-79
2021/12/22 13:17:55;;;;;;;3.80;0.80;;;6.50;63.50;;;;;;5069174;28;20028;-80
2021/12/22 13:20:34;;;;;;;0.75;0.75;;;6.20;65.30;;;;;;5067625;28;20488;-80
2021/12/22 13:23:03;;;;;;;4.10;3.15;;;6.40;64.50;;;;;;5085685;28;20103;-81
2021/12/22 13:25:38;;;;;;;1.83;1.40;;;7.10;62.90;;;;;;5083691;28;20101;-79
2021/12/22 13:28:07;;;;;;;2.53;1.70;;;6.90;62.50;;;;;;5067579;28;20025;-80
2021/12/22 13:30:43;;;;;;;0.75;0.75;;;6.90;62.50;;;;;;5085260;28;20040;-80
2021/12/22 13:33:15;;;;;;;0.90;0.90;;;7.00;61.70;;;;;;5066893;28;20080;-80
2021/12/22 13:35:50;;;;;;;1.70;1.63;;;6.90;61.90;;;;;;5070003;28;20012;-79
2021/12/22 13:38:25;;;;;;;0.30;0.30;;;6.20;64.60;;;;;;5069511;28;20025;-80
2021/12/22 13:40:57;;;;;;;1.58;1.48;;;5.50;66.20;;;;;;5067220;28;20056;-78
2021/12/22 13:43:25;;;;;;;0.98;0.98;;;5.10;68.10;;;;;;5067345;28;20064;-79
2021/12/22 13:45:54;;;;;;;0.40;0.40;;;4.70;69.80;;;;;;5083587;28;20029;-78
2021/12/22 13:48:21;;;;;;;1.38;1.38;;;4.40;71.20;;;;;;5050757;28;20044;-79
2021/12/22 13:50:48;;;;;;;13.85;4.13;;;4.20;72.00;;;;;;5045395;28;20071;-80
2021/12/22 13:53:17;;;;;;;2.33;2.17;;;4.00;72.60;;;;;;5049783;28;20044;-79
2021/12/22 13:55:44;;;;;;;1.10;1.10;;;3.20;74.70;;;;;;5067748;28;20100;-79
2021/12/22 13:58:36;;;;;;;3.60;0.90;;;2.60;77.80;;;;;;5070934;28;20028;-81
2021/12/22 14:01:21;;;;;;;0.50;0.50;;;2.50;77.80;;;;;;5053764;28;20040;-80
2021/12/22 14:04:00;;;;;;;2.03;1.85;;;2.40;78.40;;;;;;5072276;28;20024;-80
2021/12/22 14:06:31;;;;;;;0.50;0.50;;;2.40;78.70;;;;;;5071068;28;20025;-79
2021/12/22 14:09:10;;;;;;;0.30;0.30;;;2.40;79.20;;;;;;5067668;28;20020;-78
2021/12/22 14:11:42;;;;;;;8.50;2.53;;;2.30;80.30;;;;;;5051135;28;20029;-79
2021/12/22 14:17:44;;;;;;;1.25;1.15;;;2.10;80.70;;;;;;5038492;28;20029;-88
2021/12/22 14:20:22;;;;;;;0.30;0.30;;;2.00;81.60;;;;;;5019447;28;20034;-88
2021/12/22 14:23:06;;;;;;;0.82;0.82;;;1.90;82.50;;;;;;5018084;28;20128;-88
2021/12/22 14:26:06;;;;;;;0.63;0.63;;;1.80;82.30;;;;;;4999024;28;20057;-91
2021/12/22 14:28:39;;;;;;;5.38;5.03;;;1.90;82.00;;;;;;5015268;28;20065;-90
2021/12/22 14:31:23;;;;;;;1.55;1.45;;;1.80;82.00;;;;;;4999523;28;20030;-90
2021/12/22 14:34:15;;;;;;;9.55;2.90;;;1.80;82.40;;;;;;4999470;28;20025;-90
2021/12/22 14:36:46;;;;;;;1.13;1.13;;;1.60;82.60;;;;;;4998194;28;20025;-90
2021/12/22 14:39:36;;;;;;;3.83;0.53;;;1.60;82.80;;;;;;4997934;28;20022;-90
2021/12/22 14:46:01;;;;;;;1.15;1.15;;;1.40;83.60;;;;;;5017801;28;20386;-91
2021/12/22 14:49:01;;;;;;;2.25;2.13;;;1.40;84.10;;;;;;5032805;28;20032;-91
2021/12/22 14:51:30;;;;;;;2.58;2.38;;;1.50;84.20;;;;;;5010093;28;20030;-91
2021/12/22 14:54:38;;;;;;;10.07;2.85;;;1.40;84.10;;;;;;5030788;28;20029;-91
2021/12/22 14:57:06;;;;;;;0.40;0.40;;;1.50;85.30;;;;;;5030517;28;20112;-91
2021/12/22 14:59:51;;;;;;;0.40;0.40;;;1.40;85.10;;;;;;5031519;28;20032;-91
2021/12/22 15:02:27;;;;;;;1.10;1.10;;;1.60;85.30;;;;;;5030275;28;20026;-90
2021/12/22 15:05:08;;;;;;;5.05;2.90;;;1.40;85.00;;;;;;5029737;28;20076;-90
2021/12/22 15:07:47;;;;;;;1.38;1.38;;;1.30;85.90;;;;;;5030318;28;20033;-90